createdAt,value
2023-03-16T00:01:43.629Z,3.97
2023-03-16T00:04:10.157Z,4.82
2023-03-16T00:06:36.752Z,4.10
2023-03-16T00:09:04.313Z,3.80
2023-03-16T00:11:30.878Z,5.28
2023-03-16T00:13:58.685Z,3.40
2023-03-16T00:16:25.380Z,4.15
2023-03-16T00:18:51.953Z,5.10
2023-03-16T00:21:18.485Z,3.58
2023-03-16T00:23:45.077Z,3.40
2023-03-16T00:26:13.140Z,4.10
2023-03-16T00:28:39.991Z,3.65
2023-03-16T00:31:08.702Z,3.20
2023-03-16T00:33:37.964Z,3.35
2023-03-16T00:36:09.234Z,5.13
2023-03-16T00:38:44.894Z,4.57
2023-03-16T00:41:14.253Z,3.97
2023-03-16T00:43:42.708Z,3.78
2023-03-16T00:46:11.459Z,3.53
2023-03-16T00:48:42.452Z,3.60
2023-03-16T00:51:12.860Z,3.83
2023-03-16T00:53:41.314Z,3.10
2023-03-16T00:56:08.671Z,3.97
2023-03-16T00:58:39.172Z,3.53
2023-03-16T01:01:11.884Z,3.35
2023-03-16T01:03:38.480Z,2.85
2023-03-16T01:06:07.149Z,3.83
2023-03-16T01:08:33.661Z,4.68
2023-03-16T01:11:10.397Z,2.78
2023-03-16T01:13:38.512Z,3.05
2023-03-16T01:16:05.770Z,4.60
2023-03-16T01:18:35.336Z,2.78
2023-03-16T01:21:03.526Z,4.68
2023-03-16T01:23:31.344Z,4.63
2023-03-16T01:25:59.132Z,4.82
2023-03-16T01:28:28.216Z,4.00
2023-03-16T01:30:58.888Z,2.95
2023-03-16T01:33:26.915Z,3.15
2023-03-16T01:35:57.485Z,3.70
2023-03-16T01:38:24.705Z,2.53
2023-03-16T01:40:52.512Z,3.40
2023-03-16T01:43:20.933Z,3.38
2023-03-16T01:46:05.940Z,3.47
2023-03-16T01:48:38.075Z,4.15
2023-03-16T01:51:11.828Z,3.38
2023-03-16T01:56:13.178Z,4.07
2023-03-16T01:58:42.959Z,4.10
2023-03-16T02:01:10.738Z,3.30
2023-03-16T02:03:37.364Z,3.15
2023-03-16T02:06:12.871Z,2.80
2023-03-16T02:08:40.573Z,3.85
2023-03-16T02:11:09.638Z,2.92
2023-03-16T02:13:36.983Z,7.00
2023-03-16T02:16:06.891Z,4.13
2023-03-16T02:18:34.052Z,2.22
2023-03-16T02:21:20.606Z,3.05
2023-03-16T02:23:48.494Z,3.55
2023-03-16T02:26:27.110Z,5.35
2023-03-16T02:29:16.971Z,3.53
2023-03-16T02:31:44.685Z,4.20
2023-03-16T02:34:13.489Z,3.78
2023-03-16T02:36:42.219Z,2.78
2023-03-16T02:39:08.729Z,3.72
2023-03-16T02:41:35.313Z,4.18
2023-03-16T02:44:10.810Z,5.25
2023-03-16T02:46:38.272Z,2.63
2023-03-16T02:49:12.157Z,2.88
2023-03-16T02:51:38.697Z,3.45
2023-03-16T02:54:05.283Z,5.28
2023-03-16T02:56:31.814Z,3.00
2023-03-16T02:58:58.537Z,6.70
2023-03-16T03:01:25.288Z,3.13
2023-03-16T03:03:51.869Z,5.35
2023-03-16T03:06:18.618Z,4.53
2023-03-16T03:08:45.146Z,5.25
2023-03-16T03:11:11.650Z,3.80
2023-03-16T03:13:39.210Z,3.35
2023-03-16T03:16:06.104Z,2.88
2023-03-16T03:18:34.611Z,2.50
2023-03-16T03:21:01.225Z,4.93
2023-03-16T03:23:27.801Z,4.97
2023-03-16T03:25:58.737Z,5.30
2023-03-16T03:28:25.820Z,3.75
2023-03-16T03:30:52.361Z,2.40
2023-03-16T03:33:19.549Z,3.60
2023-03-16T03:35:46.133Z,3.63
2023-03-16T03:38:12.714Z,3.10
2023-03-16T03:40:39.266Z,3.65
2023-03-16T03:43:06.367Z,3.17
2023-03-16T03:45:33.043Z,3.97
2023-03-16T03:47:59.685Z,4.63
2023-03-16T03:50:26.595Z,4.03
2023-03-16T03:52:53.425Z,3.97
2023-03-16T03:55:19.958Z,3.60
2023-03-16T03:57:46.466Z,3.08
2023-03-16T04:00:13.567Z,3.05
2023-03-16T04:02:40.802Z,3.10
2023-03-16T04:05:08.346Z,4.10
2023-03-16T04:07:34.974Z,2.92
2023-03-16T04:10:01.507Z,2.40
2023-03-16T04:12:28.120Z,4.55
2023-03-16T04:14:54.684Z,3.55
2023-03-16T04:17:21.247Z,2.70
2023-03-16T04:19:48.114Z,3.72
2023-03-16T04:22:14.688Z,2.75
2023-03-16T04:24:43.212Z,3.47
2023-03-16T04:27:12.074Z,3.45
2023-03-16T04:29:39.082Z,3.38
2023-03-16T04:32:07.051Z,3.08
2023-03-16T04:34:34.422Z,3.47
2023-03-16T04:37:02.252Z,3.25
2023-03-16T04:39:28.820Z,7.78
2023-03-16T04:41:55.451Z,2.92
2023-03-16T04:44:21.978Z,3.42
2023-03-16T04:46:48.495Z,3.70
2023-03-16T04:49:14.990Z,2.08
2023-03-16T04:51:42.531Z,2.63
2023-03-16T04:54:09.335Z,4.00
2023-03-16T04:56:35.950Z,7.40
2023-03-16T04:59:02.603Z,2.88
2023-03-16T05:01:29.229Z,2.17
2023-03-16T05:03:57.492Z,4.85
2023-03-16T05:06:25.076Z,2.55
2023-03-16T05:08:51.555Z,3.53
2023-03-16T05:11:18.122Z,4.15
2023-03-16T05:13:44.626Z,2.00
2023-03-16T05:16:11.160Z,3.92
2023-03-16T05:18:37.725Z,2.67
2023-03-16T05:21:04.459Z,2.35
2023-03-16T05:23:31.529Z,4.20
2023-03-16T05:26:01.008Z,6.95
2023-03-16T05:28:27.863Z,4.25
2023-03-16T05:30:54.785Z,2.72
2023-03-16T05:33:21.616Z,3.08
2023-03-16T05:35:48.329Z,3.08
2023-03-16T05:38:15.797Z,5.05
2023-03-16T05:40:42.388Z,4.10
2023-03-16T05:43:08.958Z,3.60
2023-03-16T05:45:35.465Z,3.92
2023-03-16T05:48:01.961Z,2.95
2023-03-16T05:50:29.027Z,4.35
2023-03-16T05:52:55.713Z,2.67
2023-03-16T05:55:22.249Z,2.42
2023-03-16T05:57:48.756Z,4.50
2023-03-16T06:00:16.927Z,3.67
2023-03-16T06:02:47.556Z,3.75
2023-03-16T06:05:14.463Z,5.07
2023-03-16T06:07:41.707Z,3.15
2023-03-16T06:10:09.326Z,5.10
2023-03-16T06:12:35.920Z,2.90
2023-03-16T06:15:03.094Z,4.85
2023-03-16T06:17:29.802Z,3.15
2023-03-16T06:19:56.332Z,2.55
2023-03-16T06:22:23.976Z,4.88
2023-03-16T06:24:51.157Z,5.38
2023-03-16T06:27:20.280Z,3.70
2023-03-16T06:29:47.894Z,2.83
2023-03-16T06:32:14.677Z,4.13
2023-03-16T06:34:41.708Z,4.70
2023-03-16T06:37:08.344Z,6.88
2023-03-16T06:39:34.913Z,4.78
2023-03-16T06:42:01.441Z,3.15
2023-03-16T06:44:28.034Z,2.15
2023-03-16T06:46:54.568Z,2.30
2023-03-16T06:49:21.282Z,3.47
2023-03-16T06:51:47.853Z,2.50
2023-03-16T06:54:14.773Z,1.60
2023-03-16T06:56:41.348Z,1.58
2023-03-16T06:59:08.131Z,3.53
2023-03-16T07:01:34.685Z,3.70
2023-03-16T07:04:04.094Z,4.18
2023-03-16T07:06:34.006Z,4.13
2023-03-16T07:09:01.436Z,3.40
2023-03-16T07:11:30.809Z,3.38
2023-03-16T07:13:58.584Z,2.33
2023-03-16T07:16:25.794Z,3.20
2023-03-16T07:18:54.289Z,2.58
2023-03-16T07:21:21.718Z,4.18
2023-03-16T07:23:48.316Z,2.97
2023-03-16T07:26:14.913Z,5.50
2023-03-16T07:28:41.627Z,3.83
2023-03-16T07:31:09.456Z,3.92
2023-03-16T07:33:37.485Z,3.28
2023-03-16T07:36:05.603Z,3.45
2023-03-16T07:38:33.785Z,3.40
2023-03-16T07:41:01.117Z,2.53
2023-03-16T07:43:27.909Z,2.85
2023-03-16T07:45:54.792Z,3.63
2023-03-16T07:48:21.518Z,3.55
2023-03-16T07:50:48.578Z,6.32
2023-03-16T07:53:15.664Z,4.80
2023-03-16T07:55:43.082Z,4.22
2023-03-16T07:58:10.812Z,3.15
2023-03-16T08:00:37.622Z,2.83
2023-03-16T08:03:04.268Z,5.63
2023-03-16T08:05:32.566Z,2.83
2023-03-16T08:07:59.845Z,3.85
2023-03-16T08:10:27.259Z,3.72
2023-03-16T08:12:53.973Z,4.53
2023-03-16T08:15:21.576Z,4.28
2023-03-16T08:17:48.121Z,4.10
2023-03-16T08:20:15.498Z,3.63
2023-03-16T08:22:46.097Z,8.80
2023-03-16T08:25:14.206Z,2.45
2023-03-16T08:27:43.002Z,3.25
2023-03-16T08:30:12.450Z,3.65
2023-03-16T08:32:41.031Z,2.30
2023-03-16T08:35:13.515Z,3.20
2023-03-16T08:37:41.429Z,4.15
2023-03-16T08:40:15.693Z,3.40
2023-03-16T08:42:43.084Z,4.68
2023-03-16T08:45:13.492Z,2.90
2023-03-16T08:47:40.527Z,2.05
2023-03-16T08:50:09.492Z,4.30
2023-03-16T08:52:40.740Z,5.10
2023-03-16T08:55:09.652Z,2.53
2023-03-16T08:57:37.428Z,4.32
2023-03-16T09:00:13.462Z,4.38
2023-03-16T09:02:41.607Z,3.45
2023-03-16T09:05:14.793Z,2.78
2023-03-16T09:07:42.309Z,3.90
2023-03-16T09:10:13.373Z,2.33
2023-03-16T09:12:40.890Z,3.63
2023-03-16T09:15:08.910Z,3.30
2023-03-16T09:17:36.281Z,3.00
2023-03-16T09:20:15.321Z,1.58
2023-03-16T09:22:46.045Z,3.30
2023-03-16T09:25:12.619Z,2.85
2023-03-16T09:27:39.135Z,1.83
2023-03-16T09:30:07.453Z,4.22
2023-03-16T09:32:35.163Z,2.05
2023-03-16T09:35:02.387Z,4.38
2023-03-16T09:37:35.338Z,2.10
2023-03-16T09:40:28.505Z,4.38
2023-03-16T09:43:16.066Z,3.95
2023-03-16T09:45:49.169Z,2.45
2023-03-16T09:48:17.164Z,5.80
2023-03-16T09:50:49.033Z,4.45
2023-03-16T09:53:34.245Z,5.13
2023-03-16T09:56:03.528Z,3.55
2023-03-16T09:58:32.152Z,3.80
2023-03-16T10:01:23.095Z,4.70
2023-03-16T10:04:02.088Z,3.45
2023-03-16T10:06:29.504Z,2.38
2023-03-16T10:09:24.624Z,5.15
2023-03-16T10:11:55.992Z,4.30
2023-03-16T10:14:27.486Z,4.00
2023-03-16T10:17:09.673Z,2.92
2023-03-16T10:19:39.151Z,4.45
2023-03-16T10:22:14.409Z,2.78
2023-03-16T10:25:02.551Z,2.00
2023-03-16T10:27:32.461Z,4.68
2023-03-16T10:30:01.649Z,2.28
2023-03-16T10:32:34.637Z,2.38
2023-03-16T10:35:20.768Z,4.38
2023-03-16T10:37:49.144Z,3.42
2023-03-16T10:40:16.242Z,5.05
2023-03-16T10:42:42.806Z,4.28
2023-03-16T10:45:35.547Z,3.15
2023-03-16T10:48:26.585Z,3.60
2023-03-16T10:50:57.618Z,4.70
2023-03-16T10:53:31.567Z,5.05
2023-03-16T10:56:00.284Z,3.75
2023-03-16T10:58:30.900Z,4.45
2023-03-16T11:00:57.879Z,4.72
2023-03-16T11:03:27.469Z,2.00
2023-03-16T11:06:02.763Z,3.80
2023-03-16T11:08:38.894Z,8.18
2023-03-16T11:11:16.882Z,3.55
2023-03-16T11:13:47.042Z,4.35
2023-03-16T11:16:38.218Z,2.97
2023-03-16T11:19:18.943Z,3.00
2023-03-16T11:21:55.213Z,3.47
2023-03-16T11:24:28.645Z,3.88
2023-03-16T11:26:58.804Z,2.05
2023-03-16T11:29:34.378Z,3.97
2023-03-16T11:32:15.382Z,2.38
2023-03-16T11:34:43.452Z,4.40
2023-03-16T11:37:23.660Z,3.65
2023-03-16T11:40:28.194Z,6.05
2023-03-16T11:43:13.156Z,1.83
2023-03-16T11:45:57.517Z,2.92
2023-03-16T11:48:36.613Z,3.03
2023-03-16T11:51:34.170Z,3.22
2023-03-16T11:54:58.210Z,1.90
2023-03-16T11:57:42.769Z,3.25
2023-03-16T12:00:16.701Z,3.13
2023-03-16T12:03:36.583Z,3.55
2023-03-16T12:06:40.980Z,3.60
2023-03-16T12:09:22.906Z,1.55
2023-03-16T12:12:00.083Z,2.05
2023-03-16T12:14:48.343Z,3.17
2023-03-16T12:17:25.780Z,3.60
2023-03-16T12:20:24.835Z,3.83
2023-03-16T12:23:14.759Z,2.58
2023-03-16T12:25:46.044Z,2.33
2023-03-16T12:28:26.104Z,5.03
2023-03-16T12:31:17.882Z,1.95
2023-03-16T12:34:19.070Z,2.90
2023-03-16T12:36:45.592Z,2.72
2023-03-16T12:39:24.862Z,2.10
2023-03-16T12:42:06.865Z,2.55
2023-03-16T12:44:57.362Z,3.08
2023-03-16T12:47:46.325Z,2.80
2023-03-16T12:50:16.726Z,2.50
2023-03-16T12:52:46.993Z,3.20
2023-03-16T12:55:19.692Z,2.83
2023-03-16T12:57:51.475Z,2.40
2023-03-16T13:00:19.688Z,2.17
2023-03-16T13:02:57.286Z,1.73
2023-03-16T13:05:32.208Z,1.55
2023-03-16T13:08:16.279Z,2.90
2023-03-16T13:13:16.173Z,1.25
2023-03-16T13:15:47.284Z,2.13
2023-03-16T13:18:20.151Z,3.90
2023-03-16T13:20:57.382Z,3.57
2023-03-16T13:23:46.412Z,2.28
2023-03-16T13:26:16.256Z,2.58
2023-03-16T13:28:46.068Z,2.00
2023-03-16T13:31:24.084Z,2.75
2023-03-16T13:33:55.801Z,5.72
2023-03-16T13:36:23.940Z,1.73
2023-03-16T13:39:16.123Z,2.00
2023-03-16T13:41:43.589Z,1.90
2023-03-16T13:44:15.509Z,1.58
2023-03-16T13:46:42.058Z,1.70
2023-03-16T13:49:11.979Z,1.05
2023-03-16T13:51:38.568Z,3.20
2023-03-16T13:54:18.182Z,1.73
2023-03-16T13:56:45.261Z,4.03
2023-03-16T13:59:11.933Z,2.38
2023-03-16T14:01:39.164Z,2.25
2023-03-16T14:04:13.687Z,2.72
2023-03-16T14:06:41.345Z,1.77
2023-03-16T14:09:21.699Z,2.05
2023-03-16T14:11:48.807Z,4.75
2023-03-16T14:14:17.131Z,3.05
2023-03-16T14:16:44.285Z,3.50
2023-03-16T14:19:22.621Z,1.15
2023-03-16T14:21:49.695Z,1.25
2023-03-16T14:24:30.721Z,1.42
2023-03-16T14:26:58.367Z,1.15
2023-03-16T14:29:30.640Z,3.78
2023-03-16T14:31:58.877Z,1.63
2023-03-16T14:34:35.187Z,3.00
2023-03-16T14:37:13.719Z,1.80
2023-03-16T14:39:40.611Z,3.03
2023-03-16T14:42:17.973Z,1.10
2023-03-16T14:44:44.615Z,1.00
2023-03-16T14:47:22.771Z,2.50
2023-03-16T14:49:49.848Z,1.58
2023-03-16T14:52:29.827Z,2.55
2023-03-16T14:54:56.833Z,0.82
2023-03-16T14:57:24.535Z,1.48
2023-03-16T14:59:51.499Z,1.50
2023-03-16T15:02:30.550Z,1.55
2023-03-16T15:05:00.137Z,2.45
2023-03-16T15:07:32.797Z,1.05
2023-03-16T15:10:23.969Z,2.10
2023-03-16T15:12:54.029Z,1.38
2023-03-16T15:15:23.875Z,1.38
2023-03-16T15:17:52.424Z,3.30
2023-03-16T15:20:24.249Z,2.20
2023-03-16T15:22:53.010Z,1.23
2023-03-16T15:25:39.436Z,2.95
2023-03-16T15:28:19.544Z,1.95
2023-03-16T15:30:51.904Z,2.20
2023-03-16T15:33:18.974Z,1.13
2023-03-16T15:35:47.889Z,2.75
2023-03-16T15:38:39.705Z,1.80
2023-03-16T15:41:13.012Z,2.10
2023-03-16T15:43:39.776Z,1.20
2023-03-16T15:46:06.874Z,1.90
2023-03-16T15:48:34.288Z,1.52
2023-03-16T15:51:07.561Z,1.65
2023-03-16T15:53:43.557Z,2.30
2023-03-16T15:56:16.597Z,1.83
2023-03-16T15:58:45.872Z,2.67
2023-03-16T16:01:25.398Z,3.13
2023-03-16T16:03:53.959Z,3.22
2023-03-16T16:06:20.696Z,2.53
2023-03-16T16:08:47.200Z,2.35
2023-03-16T16:11:19.254Z,2.00
2023-03-16T16:13:46.443Z,3.03
2023-03-16T16:16:18.144Z,2.75
2023-03-16T16:18:46.672Z,2.75
2023-03-16T16:21:23.312Z,2.42
2023-03-16T16:23:52.203Z,2.40
2023-03-16T16:26:54.219Z,2.47
2023-03-16T16:29:33.686Z,2.42
2023-03-16T16:32:01.156Z,2.65
2023-03-16T16:34:28.173Z,4.22
2023-03-16T16:36:56.095Z,3.05
2023-03-16T16:39:22.718Z,8.02
2023-03-16T16:41:51.924Z,17.48
2023-03-16T16:44:23.498Z,8.63
2023-03-16T16:46:51.888Z,7.63
2023-03-16T16:49:22.546Z,6.43
2023-03-16T16:51:49.514Z,8.85
2023-03-16T16:54:25.529Z,5.90
2023-03-16T16:56:54.210Z,6.28
2023-03-16T16:59:31.394Z,8.70
2023-03-16T17:02:00.260Z,6.68
2023-03-16T17:04:28.872Z,6.13
2023-03-16T17:06:58.887Z,7.85
2023-03-16T17:09:27.762Z,7.82
2023-03-16T17:11:58.639Z,7.22
2023-03-16T17:14:27.611Z,6.25
2023-03-16T17:16:54.536Z,7.32
2023-03-16T17:19:27.784Z,6.32
2023-03-16T17:21:57.249Z,6.43
2023-03-16T17:24:24.420Z,8.27
2023-03-16T17:27:01.408Z,7.50
2023-03-16T17:29:33.642Z,5.82
2023-03-16T17:32:02.560Z,6.28
2023-03-16T17:34:32.277Z,7.13
2023-03-16T17:36:58.822Z,5.68
2023-03-16T17:39:31.629Z,3.78
2023-03-16T17:42:07.108Z,4.73
2023-03-16T17:44:38.027Z,5.07
2023-03-16T17:47:25.096Z,6.05
2023-03-16T17:49:52.317Z,5.65
2023-03-16T17:52:25.449Z,5.50
2023-03-16T17:54:53.585Z,5.40
2023-03-16T17:57:25.525Z,4.70
2023-03-16T17:59:52.236Z,4.95
2023-03-16T18:02:37.340Z,5.88
2023-03-16T18:05:05.604Z,5.50
2023-03-16T18:07:32.207Z,6.80
2023-03-16T18:09:59.106Z,7.80
2023-03-16T18:12:25.777Z,8.18
2023-03-16T18:14:58.375Z,6.25
2023-03-16T18:17:30.238Z,8.05
2023-03-16T18:19:57.370Z,7.82
2023-03-16T18:22:24.979Z,7.75
2023-03-16T18:24:53.877Z,7.60
2023-03-16T18:27:21.338Z,6.63
2023-03-16T18:29:48.777Z,9.20
2023-03-16T18:32:27.415Z,8.05
2023-03-16T18:34:54.318Z,14.07
2023-03-16T18:37:24.015Z,10.07
2023-03-16T18:39:52.370Z,9.98
2023-03-16T18:42:20.951Z,9.30
2023-03-16T18:44:48.642Z,10.32
2023-03-16T18:47:18.588Z,9.32
2023-03-16T18:49:49.334Z,13.88
2023-03-16T18:52:24.284Z,13.05
2023-03-16T18:54:52.890Z,13.98
2023-03-16T18:57:24.960Z,13.25
2023-03-16T18:59:51.655Z,10.88
2023-03-16T19:02:27.539Z,11.82
2023-03-16T19:04:58.001Z,10.07
2023-03-16T19:07:31.468Z,11.10
2023-03-16T19:10:06.470Z,12.38
2023-03-16T19:12:33.467Z,7.63
2023-03-16T19:15:00.414Z,8.43
2023-03-16T19:17:27.007Z,7.20
2023-03-16T19:19:53.523Z,7.93
2023-03-16T19:22:21.839Z,8.13
2023-03-16T19:24:54.261Z,8.80
2023-03-16T19:27:38.173Z,8.55
2023-03-16T19:32:31.785Z,7.97
2023-03-16T19:34:58.497Z,7.80
2023-03-16T19:37:26.625Z,11.38
2023-03-16T19:39:53.440Z,9.15
2023-03-16T19:42:33.550Z,7.40
2023-03-16T19:45:00.317Z,8.98
2023-03-16T19:47:30.732Z,7.22
2023-03-16T19:49:58.963Z,7.82
2023-03-16T19:52:28.106Z,6.93
2023-03-16T19:54:54.721Z,7.80
2023-03-16T19:57:21.379Z,8.40
2023-03-16T19:59:53.148Z,9.27
2023-03-16T20:02:28.352Z,8.32
2023-03-16T20:04:56.292Z,8.40
2023-03-16T20:07:22.877Z,9.65
2023-03-16T20:09:49.785Z,8.70
2023-03-16T20:12:26.223Z,6.45
2023-03-16T20:14:53.797Z,6.70
2023-03-16T20:17:23.375Z,6.68
2023-03-16T20:19:51.328Z,6.72
2023-03-16T20:22:20.651Z,6.55
2023-03-16T20:24:51.144Z,6.47
2023-03-16T20:27:20.042Z,6.50
2023-03-16T20:29:46.913Z,5.72
2023-03-16T20:32:19.078Z,7.78
2023-03-16T20:34:46.453Z,6.97
2023-03-16T20:37:24.477Z,5.53
2023-03-16T20:39:52.010Z,7.15
2023-03-16T20:42:22.414Z,7.90
2023-03-16T20:44:48.983Z,5.97
2023-03-16T20:47:17.799Z,6.72
2023-03-16T20:49:44.638Z,7.50
2023-03-16T20:52:20.329Z,5.78
2023-03-16T20:54:47.471Z,6.32
2023-03-16T20:57:21.131Z,6.25
2023-03-16T21:02:36.143Z,4.72
2023-03-16T21:05:06.145Z,5.22
2023-03-16T21:07:33.025Z,5.45
2023-03-16T21:09:59.710Z,6.57
2023-03-16T21:12:32.701Z,7.45
2023-03-16T21:15:00.469Z,6.35
2023-03-16T21:17:39.074Z,4.90
2023-03-16T21:20:15.974Z,5.68
2023-03-16T21:22:42.976Z,5.40
2023-03-16T21:25:18.819Z,5.55
2023-03-16T21:27:46.284Z,4.50
2023-03-16T21:30:38.284Z,5.78
2023-03-16T21:33:21.568Z,5.68
2023-03-16T21:35:48.236Z,5.75
2023-03-16T21:38:18.803Z,5.03
2023-03-16T21:40:46.795Z,4.57
2023-03-16T21:43:14.339Z,5.03
2023-03-16T21:45:41.549Z,5.55
2023-03-16T21:48:24.013Z,4.57
2023-03-16T21:50:52.365Z,5.38
2023-03-16T21:53:25.045Z,4.05
2023-03-16T21:55:52.149Z,4.78
2023-03-16T21:58:19.328Z,4.32
2023-03-16T22:00:47.107Z,6.00
2023-03-16T22:03:44.226Z,4.13
2023-03-16T22:06:16.594Z,5.05
2023-03-16T22:08:43.133Z,4.65
2023-03-16T22:11:16.955Z,5.32
2023-03-16T22:13:43.531Z,7.05
2023-03-16T22:16:15.976Z,3.65
2023-03-16T22:18:44.697Z,6.25
2023-03-16T22:21:24.945Z,4.53
2023-03-16T22:23:52.088Z,5.13
2023-03-16T22:26:20.563Z,5.07
2023-03-16T22:28:50.845Z,5.90
2023-03-16T22:31:21.003Z,4.97
2023-03-16T22:33:48.746Z,4.68
2023-03-16T22:36:18.508Z,4.68
2023-03-16T22:38:45.686Z,4.75
2023-03-16T22:41:15.727Z,4.65
2023-03-16T22:43:44.690Z,6.72
2023-03-16T22:46:25.433Z,4.75
2023-03-16T22:48:53.475Z,3.80
2023-03-16T22:51:24.912Z,6.07
2023-03-16T22:53:56.037Z,4.05
2023-03-16T22:56:24.134Z,4.55
2023-03-16T22:59:00.667Z,4.75
2023-03-16T23:01:44.576Z,4.20
2023-03-16T23:04:30.304Z,4.30
2023-03-16T23:06:57.314Z,4.60
2023-03-16T23:09:24.578Z,5.38
2023-03-16T23:11:54.107Z,4.28
2023-03-16T23:14:27.196Z,4.00
2023-03-16T23:16:53.952Z,3.78
2023-03-16T23:19:26.456Z,4.90
2023-03-16T23:21:55.639Z,4.38
2023-03-16T23:24:22.601Z,5.57
2023-03-16T23:26:50.645Z,4.05
2023-03-16T23:29:17.248Z,4.97
2023-03-16T23:31:44.044Z,3.13
2023-03-16T23:34:15.664Z,4.85
2023-03-16T23:36:43.221Z,5.38
2023-03-16T23:39:10.623Z,4.30
2023-03-16T23:41:39.635Z,2.75
2023-03-16T23:44:07.799Z,3.33
2023-03-16T23:46:35.177Z,3.70
2023-03-16T23:49:04.542Z,5.38
2023-03-16T23:51:36.037Z,5.75
2023-03-16T23:54:14.040Z,5.35
2023-03-16T23:56:40.884Z,5.78
2023-03-16T23:59:07.501Z,3.88
